Time;durP1;ratioP1;P1;durP2;ratioP2;P2;SDS_P1;SDS_P2;PMS_P1;PMS_P2;Temp;Humidity;BMP_temperature;BMP_pressure;BME280_temperature;BME280_humidity;BME280_pressure;Samples;Min_cycle;Max_cycle;Signal;HPM_P1;HPM_P2
2022/01/15 00:01:09;;;;;;;49.47;23.00;;;;;;;4.04;95.26;101360.41;4818224;29;20052;-75
2022/01/15 00:03:36;;;;;;;49.85;22.17;;;;;;;4.06;95.19;101363.88;4838340;29;20034;-75
2022/01/15 00:06:03;;;;;;;49.65;22.90;;;;;;;4.01;94.85;101360.53;4854547;29;20030;-75
2022/01/15 00:08:30;;;;;;;52.38;22.92;;;;;;;4.04;94.98;101357.78;4853806;29;20467;-75
2022/01/15 00:10:59;;;;;;;50.95;22.05;;;;;;;4.05;94.69;101363.00;4849649;29;20045;-75
2022/01/15 00:13:30;;;;;;;47.00;21.98;;;;;;;4.01;94.47;101363.19;4840981;29;20050;-76
2022/01/15 00:16:26;;;;;;;47.45;22.52;;;;;;;4.02;94.80;101356.97;4855599;29;20048;-76
2022/01/15 00:19:05;;;;;;;50.67;22.45;;;;;;;4.00;94.01;101356.19;4852036;29;20037;-75
2022/01/15 00:21:35;;;;;;;49.10;22.45;;;;;;;3.96;94.28;101354.56;4842957;29;20426;-75
2022/01/15 00:24:02;;;;;;;49.03;22.20;;;;;;;3.99;94.47;101357.09;4849727;29;20030;-76
2022/01/15 00:26:28;;;;;;;48.42;22.10;;;;;;;3.99;94.52;101357.97;4850589;29;20053;-75
2022/01/15 00:28:55;;;;;;;51.58;23.75;;;;;;;4.01;94.40;101361.41;4841310;29;20064;-75
2022/01/15 00:31:22;;;;;;;51.30;24.17;;;;;;;4.02;94.52;101346.38;4834275;29;20057;-76
2022/01/15 00:33:49;;;;;;;49.30;23.80;;;;;;;3.98;94.54;101356.25;4825433;29;20045;-75
2022/01/15 00:36:18;;;;;;;54.33;24.75;;;;;;;3.89;94.49;101348.66;4840121;29;20029;-75
2022/01/15 00:38:46;;;;;;;55.28;24.02;;;;;;;3.78;94.39;101349.09;4826101;29;20038;-76
2022/01/15 00:41:13;;;;;;;58.65;24.23;;;;;;;3.73;95.01;101342.25;4825256;29;20037;-75
2022/01/15 00:43:41;;;;;;;53.65;23.52;;;;;;;3.74;94.65;101341.31;4840429;29;20036;-75
2022/01/15 00:46:07;;;;;;;46.92;22.13;;;;;;;3.81;95.00;101336.69;4839328;29;20045;-75
2022/01/15 00:48:34;;;;;;;54.10;23.42;;;;;;;3.86;94.73;101334.72;4836453;29;20579;-75
2022/01/15 00:51:01;;;;;;;50.72;23.02;;;;;;;3.90;94.76;101333.66;4824985;29;20048;-75
2022/01/15 00:53:27;;;;;;;50.05;22.40;;;;;;;3.90;94.79;101331.00;4839542;29;20373;-75
2022/01/15 00:55:54;;;;;;;49.55;23.63;;;;;;;3.94;94.76;101325.53;4854579;29;20080;-75
2022/01/15 00:58:20;;;;;;;45.47;22.25;;;;;;;3.91;94.67;101323.00;4837985;29;20029;-75
2022/01/15 01:00:47;;;;;;;47.15;22.27;;;;;;;3.93;94.40;101321.16;4840065;29;20061;-76
2022/01/15 01:03:14;;;;;;;51.10;22.60;;;;;;;3.95;94.40;101316.66;4839634;29;20049;-75
2022/01/15 01:05:40;;;;;;;52.05;23.73;;;;;;;3.89;94.14;101321.34;4839300;29;20045;-75
2022/01/15 01:08:07;;;;;;;47.72;23.10;;;;;;;3.84;94.55;101316.25;4849436;29;20037;-75
2022/01/15 01:24:01;;;;;;;46.45;20.90;;;;;;;3.89;94.38;101292.25;4822302;29;20053;-75
2022/01/15 01:26:33;;;;;;;50.97;22.20;;;;;;;3.89;94.34;101295.75;4836490;29;20037;-75
2022/01/15 01:29:10;;;;;;;49.30;21.67;;;;;;;3.90;94.04;101286.03;4839401;29;20129;-76
2022/01/15 01:31:51;;;;;;;50.00;22.58;;;;;;;3.87;93.96;101278.22;4807224;29;20070;-75
2022/01/15 01:34:19;;;;;;;50.00;23.30;;;;;;;3.74;93.72;101277.81;4822401;29;20133;-75
2022/01/15 01:36:59;;;;;;;52.38;22.88;;;;;;;3.71;94.01;101277.94;4835359;29;20556;-75
2022/01/15 01:39:35;;;;;;;50.83;23.63;;;;;;;3.81;94.30;101276.69;4822009;29;20113;-75
2022/01/15 01:45:14;;;;;;;52.45;23.77;;;;;;;3.84;94.44;101279.22;4824688;29;20057;-75
2022/01/15 01:47:42;;;;;;;54.38;22.23;;;;;;;3.85;94.32;101270.34;4806069;29;20102;-76
2022/01/15 01:50:20;;;;;;;52.65;23.52;;;;;;;3.76;94.40;101260.97;4819758;29;20101;-76
2022/01/15 01:52:48;;;;;;;56.78;23.23;;;;;;;3.74;94.21;101257.53;4820566;29;20038;-75
2022/01/15 01:55:19;;;;;;;53.75;23.75;;;;;;;3.72;94.38;101266.44;4821184;29;20101;-75
2022/01/15 01:57:46;;;;;;;58.38;24.85;;;;;;;3.76;94.38;101262.75;4821419;29;20476;-75
2022/01/15 02:00:19;;;;;;;55.08;25.02;;;;;;;3.82;94.17;101262.53;4819540;29;20048;-75
2022/01/15 02:02:48;;;;;;;57.08;24.13;;;;;;;3.78;94.31;101264.44;4814791;29;20691;-75
2022/01/15 02:05:16;;;;;;;58.17;25.88;;;;;;;3.81;94.26;101267.88;4829764;29;20638;-75
2022/01/15 02:07:43;;;;;;;55.72;24.45;;;;;;;3.79;93.78;101263.53;4820956;29;20026;-75
2022/01/15 02:10:13;;;;;;;57.42;24.85;;;;;;;3.80;94.20;101261.75;4820185;29;20034;-75
2022/01/15 02:12:39;;;;;;;49.88;22.20;;;;;;;3.73;94.23;101263.75;4820515;29;20026;-76
2022/01/15 02:15:11;;;;;;;58.10;24.80;;;;;;;3.76;93.83;101257.47;4820995;29;20035;-75
2022/01/15 02:17:38;;;;;;;54.95;23.70;;;;;;;3.77;94.04;101259.19;4834830;29;20408;-76
2022/01/15 02:20:22;;;;;;;54.28;24.00;;;;;;;3.84;94.14;101259.81;4821837;29;20057;-75
2022/01/15 02:25:48;;;;;;;54.50;24.08;;;;;;;3.67;94.06;101253.41;4823768;29;20044;-75
2022/01/15 02:28:15;;;;;;;50.35;21.73;;;;;;;3.63;94.21;101259.75;4830752;29;20061;-75
2022/01/15 02:30:42;;;;;;;58.72;24.02;;;;;;;3.66;94.22;101256.97;4818746;29;20049;-76
2022/01/15 02:33:10;;;;;;;54.17;24.17;;;;;;;3.66;94.25;101250.84;4804629;29;20106;-75
2022/01/15 02:35:38;;;;;;;57.88;23.83;;;;;;;3.59;94.58;101239.66;4823354;29;20042;-75
2022/01/15 02:38:07;;;;;;;52.53;23.65;;;;;;;3.63;94.64;101248.31;4814488;29;20034;-75
2022/01/15 02:40:35;;;;;;;54.13;23.70;;;;;;;3.70;94.37;101239.19;4829211;29;20132;-75
2022/01/15 02:43:14;;;;;;;57.30;24.00;;;;;;;3.71;94.69;101238.28;4835010;29;20026;-75
2022/01/15 02:45:42;;;;;;;51.88;24.00;;;;;;;3.75;94.41;101234.59;4820646;29;20270;-75
2022/01/15 02:48:14;;;;;;;52.22;23.70;;;;;;;3.72;93.98;101234.72;4821168;29;20649;-75
2022/01/15 02:50:42;;;;;;;55.45;23.70;;;;;;;3.73;94.13;101231.13;4834189;29;20120;-75
2022/01/15 02:53:09;;;;;;;52.40;24.17;;;;;;;3.76;94.21;101223.06;4821463;29;20034;-75
2022/01/15 02:55:36;;;;;;;48.17;22.10;;;;;;;3.65;94.08;101225.31;4819808;29;20038;-76
2022/01/15 02:58:03;;;;;;;52.70;21.52;;;;;;;3.64;94.13;101224.44;4822931;29;20040;-76
2022/01/15 03:00:32;;;;;;;50.72;22.52;;;;;;;3.61;94.14;101214.00;4822649;29;20770;-75
2022/01/15 03:03:00;;;;;;;49.17;20.00;;;;;;;3.53;94.11;101218.75;4823810;29;20050;-75
2022/01/15 03:05:27;;;;;;;45.60;20.75;;;;;;;3.54;93.91;101219.59;4822318;29;20039;-76
2022/01/15 03:07:54;;;;;;;46.83;21.08;;;;;;;3.59;93.93;101215.84;4824502;29;20507;-75
2022/01/15 03:10:21;;;;;;;48.88;21.45;;;;;;;3.66;93.92;101211.16;4824198;29;20042;-75
2022/01/15 03:12:48;;;;;;;47.65;21.20;;;;;;;3.66;94.21;101209.38;4819508;29;20033;-75
2022/01/15 03:15:19;;;;;;;48.30;21.05;;;;;;;3.69;93.98;101211.88;4817278;29;20054;-76
2022/01/15 03:17:49;;;;;;;45.00;19.33;;;;;;;3.68;93.92;101209.31;4823539;29;20046;-76
2022/01/15 03:20:17;;;;;;;43.50;18.55;;;;;;;3.69;93.45;101198.66;4832561;29;20038;-75
2022/01/15 03:22:44;;;;;;;43.20;20.07;;;;;;;3.66;93.44;101193.50;4817821;29;20048;-75
2022/01/15 03:25:11;;;;;;;41.05;18.50;;;;;;;3.61;93.47;101186.69;4823795;29;20059;-75
2022/01/15 03:27:40;;;;;;;44.08;17.63;;;;;;;3.56;93.65;101184.22;4817422;29;20037;-75
2022/01/15 03:30:08;;;;;;;42.00;17.80;;;;;;;3.46;93.34;101188.19;4823861;29;20118;-75
2022/01/15 03:32:35;;;;;;;36.03;15.85;;;;;;;3.41;93.48;101182.22;4838686;29;20131;-76
2022/01/15 03:35:01;;;;;;;36.72;16.10;;;;;;;3.33;93.41;101179.91;4858974;29;20041;-75
2022/01/15 03:37:29;;;;;;;35.83;16.48;;;;;;;3.42;93.70;101179.50;4855005;29;20033;-76
2022/01/15 03:39:56;;;;;;;34.88;16.15;;;;;;;3.42;93.91;101183.94;4840283;29;20037;-75
2022/01/15 03:42:24;;;;;;;37.92;15.90;;;;;;;3.37;93.44;101175.34;4838721;29;20038;-76
2022/01/15 03:44:50;;;;;;;40.15;16.65;;;;;;;3.44;93.87;101176.81;4835646;29;20040;-76
2022/01/15 03:47:18;;;;;;;37.25;15.25;;;;;;;3.36;93.73;101182.41;4839457;29;20025;-75
2022/01/15 03:49:45;;;;;;;36.22;15.23;;;;;;;3.31;93.95;101173.81;4856148;29;20034;-76
2022/01/15 03:52:12;;;;;;;33.65;15.52;;;;;;;3.38;93.78;101167.34;4841324;29;20033;-76
2022/01/15 03:54:39;;;;;;;34.28;15.80;;;;;;;3.48;93.68;101166.03;4853181;29;20022;-75
2022/01/15 03:57:08;;;;;;;35.15;15.55;;;;;;;3.52;93.16;101166.78;4831630;29;20192;-75
2022/01/15 03:59:36;;;;;;;34.97;14.65;;;;;;;3.58;93.14;101165.66;4840016;29;20030;-75
2022/01/15 04:02:03;;;;;;;35.67;15.27;;;;;;;3.58;93.07;101160.38;4835055;29;21245;-75
2022/01/15 04:04:30;;;;;;;30.45;14.23;;;;;;;3.43;93.01;101146.00;4840578;29;20034;-75
2022/01/15 04:06:57;;;;;;;36.25;15.02;;;;;;;3.42;93.33;101154.88;4833971;29;20048;-75
2022/01/15 04:09:25;;;;;;;31.85;13.75;;;;;;;3.41;93.19;101143.44;4840691;29;20499;-76
2022/01/15 04:11:52;;;;;;;34.90;15.40;;;;;;;3.46;93.22;101140.59;4839920;29;20116;-75
2022/01/15 04:14:19;;;;;;;33.97;15.13;;;;;;;3.46;93.37;101136.16;4833619;29;20220;-75
2022/01/15 04:16:46;;;;;;;31.83;14.68;;;;;;;3.41;93.23;101135.50;4839915;29;20037;-75
2022/01/15 04:19:13;;;;;;;32.10;14.05;;;;;;;3.37;93.07;101133.03;4842494;29;20584;-76
2022/01/15 04:21:40;;;;;;;30.08;13.45;;;;;;;3.36;93.00;101132.19;4831474;29;20034;-75
2022/01/15 04:24:07;;;;;;;34.92;13.85;;;;;;;3.45;93.11;101134.44;4853300;29;20088;-76
2022/01/15 04:26:34;;;;;;;28.70;12.73;;;;;;;3.46;93.15;101138.81;4840016;29;20067;-75
2022/01/15 04:29:06;;;;;;;29.25;14.00;;;;;;;3.42;92.83;101134.56;4824636;29;20069;-75
2022/01/15 04:31:48;;;;;;;31.17;13.90;;;;;;;3.36;92.85;101129.53;4826503;29;20163;-75
2022/01/15 04:34:19;;;;;;;26.50;12.90;;;;;;;3.39;92.67;101129.41;4840802;29;20041;-75
2022/01/15 04:36:48;;;;;;;32.50;14.35;;;;;;;3.47;92.89;101122.03;4854612;29;20045;-75
2022/01/15 04:39:15;;;;;;;29.05;13.48;;;;;;;3.53;92.92;101126.19;4834968;29;20049;-75
2022/01/15 04:41:42;;;;;;;25.67;11.75;;;;;;;3.42;92.77;101121.34;4838619;29;20055;-75
2022/01/15 04:44:09;;;;;;;28.30;12.00;;;;;;;3.34;92.55;101120.81;4842590;29;20049;-75
2022/01/15 04:46:36;;;;;;;27.02;12.75;;;;;;;3.41;92.51;101122.28;4839872;29;20066;-75
2022/01/15 04:49:03;;;;;;;27.48;11.82;;;;;;;3.35;92.57;101121.69;4826056;29;20057;-75
2022/01/15 04:51:30;;;;;;;23.35;11.77;;;;;;;3.33;92.49;101118.25;4854546;29;20121;-75
2022/01/15 04:53:58;;;;;;;25.10;12.18;;;;;;;3.33;92.50;101119.09;4839542;29;20159;-75
2022/01/15 04:56:25;;;;;;;24.27;11.32;;;;;;;3.39;92.23;101102.97;4853129;29;20034;-75
2022/01/15 04:58:52;;;;;;;25.17;11.98;;;;;;;3.48;92.37;101105.22;4838537;29;20066;-75
2022/01/15 05:01:22;;;;;;;24.23;11.70;;;;;;;3.47;92.28;101100.88;4824741;29;20034;-75
2022/01/15 05:03:52;;;;;;;25.00;11.63;;;;;;;3.50;92.17;101102.53;4838751;29;20354;-75
2022/01/15 05:06:19;;;;;;;24.48;11.75;;;;;;;3.52;92.03;101102.47;4824398;29;20033;-76
2022/01/15 05:08:47;;;;;;;26.02;11.85;;;;;;;3.52;91.82;101100.66;4832945;29;20627;-75
2022/01/15 05:11:30;;;;;;;24.95;11.88;;;;;;;3.48;92.06;101097.31;4824821;29;20030;-76
2022/01/15 05:13:57;;;;;;;24.10;10.93;;;;;;;3.47;91.66;101092.94;4826221;29;21039;-75
2022/01/15 05:16:24;;;;;;;22.63;10.52;;;;;;;3.41;91.52;101092.34;4852725;29;20037;-76
2022/01/15 05:18:51;;;;;;;22.00;10.35;;;;;;;3.35;91.43;101088.16;4836659;29;20105;-76
2022/01/15 05:21:18;;;;;;;25.23;11.50;;;;;;;3.36;91.71;101089.88;4821529;29;20045;-75
2022/01/15 05:23:45;;;;;;;28.63;12.50;;;;;;;3.35;91.74;101088.16;4853357;29;20087;-75
2022/01/15 05:26:14;;;;;;;26.75;11.73;;;;;;;3.30;91.61;101083.97;4840372;29;20033;-75
2022/01/15 05:28:41;;;;;;;24.67;11.38;;;;;;;3.31;91.91;101072.47;4838435;29;20038;-76
2022/01/15 05:31:07;;;;;;;26.08;11.48;;;;;;;3.33;91.63;101079.44;4838288;29;20053;-75
2022/01/15 05:33:35;;;;;;;22.52;10.85;;;;;;;3.38;91.44;101084.53;4838223;29;20029;-75
2022/01/15 05:36:01;;;;;;;22.75;10.63;;;;;;;3.44;91.66;101081.63;4823732;29;20552;-75
2022/01/15 05:38:37;;;;;;;21.45;10.60;;;;;;;3.43;91.40;101071.97;4855683;29;20044;-75
2022/01/15 05:41:04;;;;;;;24.45;10.77;;;;;;;3.37;90.93;101066.97;4839934;29;20061;-75
2022/01/15 05:43:30;;;;;;;21.70;10.40;;;;;;;3.29;91.18;101066.41;4839373;29;20025;-75
2022/01/15 05:45:58;;;;;;;20.92;9.93;;;;;;;3.23;91.00;101062.22;4839070;29;20037;-75
2022/01/15 05:48:25;;;;;;;22.75;10.15;;;;;;;3.27;90.80;101055.88;4837229;29;20026;-75
2022/01/15 05:50:52;;;;;;;21.48;9.98;;;;;;;3.33;91.05;101060.94;4840953;29;20037;-76
2022/01/15 05:53:19;;;;;;;20.05;10.32;;;;;;;3.38;91.00;101052.81;4837592;29;20030;-76
2022/01/15 05:55:47;;;;;;;19.48;9.85;;;;;;;3.41;90.90;101057.97;4823640;29;20117;-75
2022/01/15 05:58:13;;;;;;;21.95;10.23;;;;;;;3.33;90.65;101058.31;4831177;29;20201;-75
2022/01/15 06:00:40;;;;;;;19.95;9.80;;;;;;;3.16;90.61;101051.06;4837711;29;20070;-75
2022/01/15 06:03:09;;;;;;;19.20;9.43;;;;;;;3.19;90.83;101050.06;4839477;29;20089;-75
2022/01/15 06:05:35;;;;;;;21.15;10.18;;;;;;;3.21;90.71;101052.63;4838931;29;20036;-75
2022/01/15 06:08:03;;;;;;;19.48;9.90;;;;;;;3.20;90.76;101048.28;4838919;29;20029;-75
2022/01/15 06:10:30;;;;;;;17.88;9.32;;;;;;;3.22;90.63;101039.38;4837068;29;20304;-76
2022/01/15 06:12:56;;;;;;;18.45;9.60;;;;;;;3.27;90.55;101040.03;4836947;29;21128;-75
2022/01/15 06:15:23;;;;;;;19.48;9.75;;;;;;;3.27;90.35;101036.53;4838560;29;20034;-75
2022/01/15 06:17:51;;;;;;;20.20;10.07;;;;;;;3.29;90.37;101038.19;4823594;29;20037;-75
2022/01/15 06:20:18;;;;;;;20.48;9.75;;;;;;;3.32;90.40;101038.06;4838396;29;20063;-76
2022/01/15 06:22:44;;;;;;;19.55;8.90;;;;;;;3.33;90.58;101031.00;4836112;29;20045;-75
2022/01/15 06:25:11;;;;;;;20.55;8.43;;;;;;;3.33;90.20;101039.78;4854003;29;20034;-75
2022/01/15 06:27:39;;;;;;;14.80;8.60;;;;;;;3.37;90.29;101037.88;4837658;29;20040;-75
2022/01/15 06:30:06;;;;;;;16.05;8.40;;;;;;;3.33;90.23;101037.16;4833917;29;20050;-76
2022/01/15 06:32:36;;;;;;;16.75;8.30;;;;;;;3.35;90.28;101031.81;4822376;29;20030;-75
2022/01/15 06:35:10;;;;;;;16.50;8.23;;;;;;;3.35;90.07;101035.31;4820934;29;20049;-75
2022/01/15 06:37:37;;;;;;;18.65;8.98;;;;;;;3.36;89.83;101033.53;4842839;29;20046;-75
2022/01/15 06:40:06;;;;;;;17.55;8.20;;;;;;;3.30;90.01;101031.97;4826436;29;20036;-75
2022/01/15 06:42:34;;;;;;;14.48;7.60;;;;;;;3.28;89.92;101025.03;4822262;29;20101;-75
2022/01/15 06:45:01;;;;;;;15.85;7.95;;;;;;;3.17;89.53;101021.06;4821209;29;20034;-75
2022/01/15 06:47:27;;;;;;;18.67;8.13;;;;;;;3.17;89.89;101013.13;4827534;29;20633;-75
2022/01/15 06:49:55;;;;;;;17.63;8.15;;;;;;;3.18;90.00;101021.91;4843159;29;20041;-75
2022/01/15 06:52:21;;;;;;;19.35;9.80;;;;;;;3.16;89.75;101027.28;4836743;29;20038;-75
2022/01/15 06:54:48;;;;;;;21.85;9.07;;;;;;;3.00;89.61;101027.97;4827097;29;20097;-75
2022/01/15 06:57:15;;;;;;;18.33;8.93;;;;;;;2.99;89.87;101031.53;4826389;29;20034;-76
2022/01/15 06:59:44;;;;;;;14.60;8.07;;;;;;;3.04;89.98;101027.78;4826317;29;20541;-75
2022/01/15 07:02:11;;;;;;;15.70;7.88;;;;;;;3.03;89.65;101033.13;4826076;29;20034;-75
2022/01/15 07:04:39;;;;;;;16.58;8.10;;;;;;;3.08;89.82;101039.09;4822040;29;20170;-76
2022/01/15 07:07:05;;;;;;;13.32;7.18;;;;;;;3.10;89.63;101034.59;4826164;29;20038;-75
2022/01/15 07:09:32;;;;;;;16.83;7.90;;;;;;;3.12;89.64;101035.38;4827209;29;20038;-75
2022/01/15 07:11:59;;;;;;;14.77;7.43;;;;;;;3.19;89.44;101036.00;4836880;29;20059;-75
2022/01/15 07:14:29;;;;;;;13.25;7.82;;;;;;;3.09;89.73;101040.81;4822563;29;20066;-75
2022/01/15 07:16:59;;;;;;;13.05;7.18;;;;;;;3.07;89.35;101037.38;4825419;29;20026;-75
2022/01/15 07:19:26;;;;;;;12.60;6.78;;;;;;;3.12;89.17;101035.38;4826559;29;20030;-76
2022/01/15 07:21:54;;;;;;;13.68;7.47;;;;;;;3.22;89.41;101030.56;4810016;29;20109;-75
2022/01/15 07:24:21;;;;;;;15.07;7.83;;;;;;;3.13;89.09;101032.69;4822613;29;20034;-75
2022/01/15 07:26:48;;;;;;;13.77;7.60;;;;;;;3.14;89.03;101029.13;4826226;29;20038;-75
2022/01/15 07:29:16;;;;;;;14.13;7.43;;;;;;;3.16;89.09;101029.91;4819744;29;20030;-75
2022/01/15 07:31:45;;;;;;;15.27;8.10;;;;;;;3.24;89.26;101034.88;4833856;29;20042;-76
2022/01/15 07:34:15;;;;;;;14.57;8.00;;;;;;;3.07;88.79;101037.38;4836410;29;20028;-75
2022/01/15 07:36:45;;;;;;;12.55;7.43;;;;;;;2.99;89.42;101040.34;4841435;29;20066;-75
2022/01/15 07:39:15;;;;;;;15.18;7.60;;;;;;;3.04;89.11;101037.50;4841565;29;20026;-75
2022/01/15 07:41:43;;;;;;;12.30;7.07;;;;;;;2.89;88.82;101039.00;4841994;29;20428;-75
2022/01/15 07:44:12;;;;;;;12.23;6.80;;;;;;;2.95;88.99;101044.03;4838177;29;20034;-75
2022/01/15 07:46:41;;;;;;;11.55;6.88;;;;;;;2.90;89.22;101038.06;4838665;29;20070;-75
2022/01/15 07:49:08;;;;;;;12.02;6.80;;;;;;;2.90;89.09;101040.72;4841443;29;20097;-75
2022/01/15 07:51:36;;;;;;;11.88;7.00;;;;;;;2.83;89.46;101036.56;4832369;29;20042;-75
2022/01/15 07:54:03;;;;;;;12.02;7.30;;;;;;;2.88;88.99;101039.06;4834548;29;20421;-75
2022/01/15 07:56:30;;;;;;;12.27;7.30;;;;;;;2.80;89.08;101034.91;4823799;29;20065;-75
2022/01/15 07:58:59;;;;;;;12.18;7.28;;;;;;;2.92;89.25;101024.81;4819077;29;20037;-76
2022/01/15 08:01:28;;;;;;;13.00;7.45;;;;;;;2.94;89.47;101023.81;4855775;29;20053;-76
2022/01/15 08:03:56;;;;;;;13.93;7.75;;;;;;;3.00;89.41;101025.34;4841244;29;20036;-76
2022/01/15 08:06:23;;;;;;;;;;;;;;;3.05;89.04;101011.00;4840633;29;20113;-75
2022/01/15 08:08:52;;;;;;;15.15;8.15;;;;;;;3.10;88.81;101016.09;4840391;29;19919;-76
2022/01/15 08:11:21;;;;;;;14.50;8.02;;;;;;;3.00;88.64;101014.78;4818295;29;20025;-75
2022/01/15 08:13:49;;;;;;;13.77;7.80;;;;;;;2.96;88.72;101019.31;4838575;29;20037;-76
2022/01/15 08:16:19;;;;;;;14.80;7.85;;;;;;;2.93;88.74;101013.31;4839544;29;20057;-77
2022/01/15 08:18:46;;;;;;;19.83;10.18;;;;;;;2.95;88.84;101022.03;4855504;29;20068;-76
2022/01/15 08:21:14;;;;;;;16.05;9.40;;;;;;;2.91;88.93;101025.72;4839255;29;20127;-75
2022/01/15 08:23:43;;;;;;;13.07;8.27;;;;;;;2.81;88.74;101025.22;4841119;29;20033;-75
2022/01/15 08:26:09;;;;;;;;;;;;;;;2.91;88.80;101023.09;4827287;29;20034;-75
2022/01/15 08:28:37;;;;;;;11.52;7.50;;;;;;;2.90;89.02;101018.72;4824284;29;19920;-75
2022/01/15 08:31:06;;;;;;;16.40;7.70;;;;;;;2.90;88.67;101016.06;4823877;29;20735;-75
2022/01/15 08:33:32;;;;;;;12.80;8.13;;;;;;;2.93;88.78;101024.72;4819703;29;20114;-75
2022/01/15 08:35:59;;;;;;;12.27;7.93;;;;;;;2.99;88.68;101019.19;4820862;29;20042;-74
2022/01/15 08:38:25;;;;;;;13.05;7.45;;;;;;;3.07;88.71;101017.09;4822477;29;20030;-75
2022/01/15 08:40:54;;;;;;;13.77;8.35;;;;;;;3.01;88.67;101013.84;4821481;29;20073;-75
2022/01/15 08:43:19;;;;;;;12.77;7.82;;;;;;;2.84;87.93;101025.97;4821482;29;20030;-75
2022/01/15 08:45:46;;;;;;;12.75;8.45;;;;;;;2.92;88.70;101017.72;4821502;29;20042;-75
2022/01/15 08:48:12;;;;;;;12.85;8.02;;;;;;;3.04;88.26;101016.38;4806730;29;20581;-75
2022/01/15 08:50:38;;;;;;;15.80;8.25;;;;;;;3.09;88.51;101011.75;4821048;29;20038;-75
2022/01/15 08:53:06;;;;;;;16.33;8.98;;;;;;;3.08;88.45;101015.31;4816195;29;20038;-75
2022/01/15 08:55:35;;;;;;;15.75;9.65;;;;;;;3.09;88.24;101002.03;4822111;29;20066;-75
2022/01/15 08:58:02;;;;;;;15.48;9.48;;;;;;;3.04;87.98;101003.16;4831300;29;20100;-75
2022/01/15 09:00:28;;;;;;;16.02;9.40;;;;;;;3.10;88.04;101005.53;4820199;29;20025;-75
2022/01/15 09:02:55;;;;;;;15.77;9.13;;;;;;;3.13;88.00;101011.53;4813698;29;20058;-76
2022/01/15 09:05:22;;;;;;;13.88;8.63;;;;;;;3.08;88.06;101008.25;4798711;29;20038;-75
2022/01/15 09:07:48;;;;;;;16.02;9.27;;;;;;;3.06;87.74;101004.81;4821358;29;20033;-75
2022/01/15 09:10:14;;;;;;;15.43;10.23;;;;;;;3.04;88.17;101005.78;4822216;29;20038;-75
2022/01/15 09:12:43;;;;;;;14.60;9.63;;;;;;;3.05;87.72;101000.44;4822167;29;20041;-75
2022/01/15 09:15:10;;;;;;;16.50;10.05;;;;;;;2.95;87.78;101003.53;4836018;29;20054;-75
2022/01/15 09:17:36;;;;;;;16.85;10.40;;;;;;;3.03;88.23;101010.22;4815101;29;20034;-75
2022/01/15 09:20:03;;;;;;;15.90;10.43;;;;;;;3.04;87.90;101001.38;4818807;29;20034;-75
2022/01/15 09:22:29;;;;;;;16.27;10.43;;;;;;;2.88;87.64;101010.88;4819632;29;20041;-75
2022/01/15 09:24:55;;;;;;;16.45;10.63;;;;;;;2.93;88.05;101000.97;4835093;29;20026;-75
2022/01/15 09:30:12;;;;;;;15.75;10.32;;;;;;;3.09;87.82;100995.88;4823448;29;20145;-75
2022/01/15 09:32:42;;;;;;;14.95;9.70;;;;;;;3.08;87.62;100988.88;4834069;29;20545;-75
2022/01/15 09:35:08;;;;;;;15.50;9.82;;;;;;;3.15;87.65;100993.84;4820695;29;20069;-75
2022/01/15 09:37:35;;;;;;;17.75;10.63;;;;;;;3.25;87.69;100989.00;4834366;29;20129;-75
2022/01/15 09:40:03;;;;;;;16.60;10.85;;;;;;;3.27;87.45;100981.88;4831924;29;20037;-75
2022/01/15 09:42:28;;;;;;;17.95;11.10;;;;;;;3.27;87.16;100987.16;4820097;29;20469;-75
2022/01/15 09:44:57;;;;;;;18.52;10.38;;;;;;;3.29;87.59;100990.59;4821048;29;20046;-75
2022/01/15 09:47:24;;;;;;;17.70;11.00;;;;;;;3.24;87.06;100986.44;4818142;29;20055;-75
2022/01/15 09:49:50;;;;;;;16.30;10.68;;;;;;;3.13;86.73;100985.13;4833893;29;20034;-75
2022/01/15 09:52:16;;;;;;;14.68;10.25;;;;;;;2.96;87.20;100971.78;4834052;29;20038;-75
2022/01/15 09:54:46;;;;;;;17.70;10.80;;;;;;;2.95;87.48;100985.91;4828260;29;20038;-75
2022/01/15 09:57:12;;;;;;;15.85;10.20;;;;;;;3.00;87.55;100983.06;4833257;29;20035;-75
2022/01/15 09:59:37;;;;;;;17.55;10.45;;;;;;;2.99;87.57;100984.00;4819867;29;20068;-74
2022/01/15 10:02:04;;;;;;;17.95;10.98;;;;;;;2.99;87.92;100979.56;4820291;29;20041;-75
2022/01/15 10:04:32;;;;;;;15.30;10.35;;;;;;;2.95;88.21;100985.06;4817286;29;20041;-75
2022/01/15 10:07:13;;;;;;;16.23;9.80;;;;;;;2.94;87.89;100983.34;4802376;29;20041;-75
2022/01/15 10:09:39;;;;;;;16.55;9.82;;;;;;;3.01;87.99;100980.38;4833679;29;20071;-75
2022/01/15 10:12:05;;;;;;;16.33;9.63;;;;;;;3.06;87.77;100985.44;4835435;29;20133;-75
2022/01/15 10:14:41;;;;;;;16.23;10.10;;;;;;;3.14;87.86;100985.97;4821295;29;20041;-75
2022/01/15 10:17:29;;;;;;;13.82;8.93;;;;;;;3.21;87.74;100991.84;4816798;29;20094;-75
2022/01/15 10:19:58;;;;;;;13.25;9.45;;;;;;;3.21;87.61;100983.94;4816213;29;20150;-75
2022/01/15 10:22:25;;;;;;;13.35;8.27;;;;;;;3.30;87.56;100978.25;4826815;29;20073;-75
2022/01/15 10:25:03;;;;;;;14.15;9.30;;;;;;;3.37;87.31;100988.50;4814263;29;20029;-75
2022/01/15 10:27:34;;;;;;;13.32;9.30;;;;;;;3.37;87.09;100983.22;4828208;29;20039;-75
2022/01/15 10:30:11;;;;;;;13.77;9.18;;;;;;;3.38;87.59;100987.59;4833150;29;20103;-75
2022/01/15 10:32:51;;;;;;;13.95;9.38;;;;;;;3.32;87.31;100981.72;4850484;29;20129;-75
2022/01/15 10:35:17;;;;;;;14.20;9.35;;;;;;;3.38;87.32;100976.16;4848765;29;20033;-75
2022/01/15 10:38:07;;;;;;;16.25;9.98;;;;;;;3.38;87.62;100978.81;4849087;29;20281;-75
2022/01/15 10:40:47;;;;;;;13.85;8.98;;;;;;;3.35;87.34;100977.16;4833657;29;20037;-75
2022/01/15 10:43:17;;;;;;;15.05;9.57;;;;;;;3.27;87.67;100975.75;4837720;29;20033;-75
2022/01/15 10:46:10;;;;;;;16.75;10.48;;;;;;;3.23;88.05;100975.00;4836536;29;20065;-75
2022/01/15 10:49:19;;;;;;;18.42;10.85;;;;;;;3.27;88.04;100976.59;4830995;29;20044;-76
2022/01/15 10:51:45;;;;;;;17.95;10.40;;;;;;;3.33;87.87;100973.72;4835030;29;20049;-75
2022/01/15 10:54:11;;;;;;;20.05;11.85;;;;;;;3.32;88.16;100971.13;4837064;29;20033;-76
2022/01/15 10:56:38;;;;;;;20.88;10.73;;;;;;;3.34;88.53;100969.28;4853034;29;20053;-75
2022/01/15 10:59:08;;;;;;;23.02;12.30;;;;;;;3.29;88.37;100964.16;4853280;29;20093;-75
2022/01/15 11:01:35;;;;;;;20.25;12.13;;;;;;;3.23;88.57;100958.28;4838391;29;20029;-75
2022/01/15 11:04:00;;;;;;;18.08;11.65;;;;;;;3.21;88.81;100949.56;4839717;29;20018;-77
2022/01/15 11:06:36;;;;;;;20.60;11.63;;;;;;;3.19;89.01;100952.28;4855043;29;20041;-77
2022/01/15 11:09:02;;;;;;;19.30;11.75;;;;;;;3.35;89.28;100950.72;4822136;29;20093;-77
2022/01/15 11:11:32;;;;;;;17.60;10.23;;;;;;;3.48;88.96;100943.94;4837832;29;20124;-75
2022/01/15 11:13:58;;;;;;;16.85;11.02;;;;;;;3.40;88.90;100940.78;4847335;29;20042;-75
2022/01/15 11:16:24;;;;;;;18.90;11.15;;;;;;;3.43;88.76;100932.72;4845868;29;20040;-75
2022/01/15 11:18:54;;;;;;;19.92;11.85;;;;;;;3.43;89.05;100939.81;4841719;29;20050;-76
2022/01/15 11:21:21;;;;;;;22.58;11.68;;;;;;;3.41;88.91;100931.94;4842475;29;20026;-76
2022/01/15 11:23:50;;;;;;;18.83;11.02;;;;;;;3.47;89.16;100931.66;4858105;29;20097;-76
2022/01/15 11:26:26;;;;;;;;;;;;;;;3.52;89.36;100930.59;4845169;29;20038;-76
2022/01/15 11:28:55;;;;;;;20.95;12.38;;;;;;;3.57;89.13;100937.38;4842088;29;19919;-76
2022/01/15 11:31:28;;;;;;;21.05;12.65;;;;;;;3.66;89.14;100931.69;4856316;29;20406;-76
2022/01/15 11:33:55;;;;;;;21.15;12.00;;;;;;;3.74;88.89;100926.03;4858438;29;20049;-76
2022/01/15 11:36:27;;;;;;;19.80;11.52;;;;;;;3.78;89.16;100917.03;4824745;29;20494;-76
2022/01/15 11:38:53;;;;;;;18.55;11.75;;;;;;;3.82;88.90;100923.91;4850719;29;20037;-76
2022/01/15 11:41:27;;;;;;;20.15;11.40;;;;;;;3.75;89.27;100923.31;4855267;29;20113;-76
2022/01/15 11:44:00;;;;;;;20.80;12.50;;;;;;;3.62;89.12;100922.16;4843039;29;20076;-76
2022/01/15 11:46:35;;;;;;;17.45;11.25;;;;;;;3.54;89.08;100919.00;4855224;29;20030;-76
2022/01/15 11:49:26;;;;;;;19.80;12.43;;;;;;;3.59;89.17;100919.66;4842752;29;20079;-76
2022/01/15 11:51:53;;;;;;;19.52;12.60;;;;;;;3.60;89.44;100910.81;4846816;29;20424;-75